地図

経路データ

SID SEASON NUMBER BASIN SUBBASIN NAME ISO_TIME NATURE LAT LON WMO_WIND WMO_PRES WMO_AGENCY TRACK_TYPE DIST2LAND LANDFALL IFLAG USA_AGENCY USA_ATCF_ID USA_LAT USA_LON USA_RECORD USA_STATUS USA_WIND USA_PRES USA_SSHS USA_R34_NE USA_R34_SE USA_R34_SW USA_R34_NW USA_R50_NE USA_R50_SE USA_R50_SW USA_R50_NW USA_R64_NE USA_R64_SE USA_R64_SW USA_R64_NW USA_POCI USA_ROCI USA_RMW USA_EYE TOKYO_LAT TOKYO_LON TOKYO_GRADE TOKYO_WIND TOKYO_PRES TOKYO_R50_DIR TOKYO_R50_LONG TOKYO_R50_SHORT TOKYO_R30_DIR TOKYO_R30_LONG TOKYO_R30_SHORT TOKYO_LAND CMA_LAT CMA_LON CMA_CAT CMA_WIND CMA_PRES HKO_LAT HKO_LON HKO_CAT HKO_WIND HKO_PRES NEWDELHI_LAT NEWDELHI_LON NEWDELHI_GRADE NEWDELHI_WIND NEWDELHI_PRES NEWDELHI_CI NEWDELHI_DP NEWDELHI_POCI REUNION_LAT REUNION_LON REUNION_TYPE REUNION_WIND REUNION_PRES REUNION_TNUM REUNION_CI REUNION_RMW REUNION_R34_NE REUNION_R34_SE REUNION_R34_SW REUNION_R34_NW REUNION_R50_NE REUNION_R50_SE REUNION_R50_SW REUNION_R50_NW REUNION_R64_NE REUNION_R64_SE REUNION_R64_SW REUNION_R64_NW BOM_LAT BOM_LON BOM_TYPE BOM_WIND BOM_PRES BOM_TNUM BOM_CI BOM_RMW BOM_R34_NE BOM_R34_SE BOM_R34_SW BOM_R34_NW BOM_R50_NE BOM_R50_SE BOM_R50_SW BOM_R50_NW BOM_R64_NE BOM_R64_SE BOM_R64_SW BOM_R64_NW BOM_ROCI BOM_POCI BOM_EYE BOM_POS_METHOD BOM_PRES_METHOD NADI_LAT NADI_LON NADI_CAT NADI_WIND NADI_PRES WELLINGTON_LAT WELLINGTON_LON WELLINGTON_WIND WELLINGTON_PRES DS824_LAT DS824_LON DS824_STAGE DS824_WIND DS824_PRES TD9636_LAT TD9636_LON TD9636_STAGE TD9636_WIND TD9636_PRES TD9635_LAT TD9635_LON TD9635_WIND TD9635_PRES TD9635_ROCI NEUMANN_LAT NEUMANN_LON NEUMANN_CLASS NEUMANN_WIND NEUMANN_PRES MLC_LAT MLC_LON MLC_CLASS MLC_WIND MLC_PRES USA_GUST BOM_GUST BOM_GUST_PER REUNION_GUST REUNION_GUST_PER USA_SEAHGT USA_SEARAD_NE USA_SEARAD_SE USA_SEARAD_SW USA_SEARAD_NW STORM_SPEED STORM_DIR
1898265N20294 1898 43 NA NA NOT_NAMED 1898-09-21 12:00:00 TS 19.7000 -66.0000 spur-merge 145 145 _____________O -1 19.7000 -66.0000 TS 35 5 334
1898265N20294 1898 43 NA NA NOT_NAMED 1898-09-21 15:00:00 TS 19.9100 -66.1099 spur-merge 167 167 _____________P -1 19.9100 -66.1099 TS 37 4 335
1898265N20294 1898 43 NA NA NOT_NAMED 1898-09-21 18:00:00 TS 20.1000 -66.2000 spur-merge 190 190 _____________O -1 20.1000 -66.2000 TS 40 4 339
1898265N20294 1898 43 NA NA NOT_NAMED 1898-09-21 21:00:00 TS 20.2575 -66.2575 spur-merge 212 212 _____________P -1 20.2575 -66.2575 TS 45 3 343
1898265N20294 1898 43 NA NA NOT_NAMED 1898-09-22 00:00:00 TS 20.4000 -66.3000 spur-merge 223 223 _____________O -1 20.4000 -66.3000 TS 50 3 343
1898265N20294 1898 43 NA NA NOT_NAMED 1898-09-22 03:00:00 TS 20.5500 -66.3500 spur-merge 246 234 _____________P -1 20.5500 -66.3500 TS 55 3 343
1898265N20294 1898 43 NA NA NOT_NAMED 1898-09-22 06:00:00 TS 20.7000 -66.4000 spur-merge 257 257 _____________O -1 20.7000 -66.4000 TS 60 3 349
1898265N20294 1898 43 NA NA NOT_NAMED 1898-09-22 09:00:00 TS 20.8724 -66.4200 spur-merge 279 279 _____________P -1 20.8724 -66.4200 TS 62 3 343
1898265N20294 1898 43 NA NA NOT_NAMED 1898-09-22 12:00:00 TS 21.0000 -66.5000 spur-merge 290 290 _____________O -1 21.0000 -66.5000 HU 65 3 298
1898265N20294 1898 43 NA NA NOT_NAMED 1898-09-22 15:00:00 TS 21.0226 -66.7275 spur-merge 290 290 _____________P -1 21.0226 -66.7275 HU 67 5 270
1898265N20294 1898 43 NA NA NOT_NAMED 1898-09-22 18:00:00 TS 21.0000 -67.0000 spur-merge 290 286 _____________O -1 21.0000 -67.0000 HU 70 4 267
1898265N20294 1898 43 NA NA NOT_NAMED 1898-09-22 21:00:00 TS 20.9999 -67.2075 spur-merge 286 274 _____________P -1 20.9999 -67.2075 HU 72 4 270
1898265N20294 1898 43 NA NA NOT_NAMED 1898-09-23 00:00:00 TS 21.0000 -67.4000 spur-merge 274 260 _____________O -1 21.0000 -67.4000 HU 75 4 270
1898265N20294 1898 43 NA NA NOT_NAMED 1898-09-23 03:00:00 TS 21.0000 -67.6000 spur-merge 260 246 _____________P -1 21.0000 -67.6000 HU 77 4 270
1898265N20294 1898 43 NA NA NOT_NAMED 1898-09-23 06:00:00 TS 21.0000 -67.8000 spur-merge 246 233 _____________O -1 21.0000 -67.8000 HU 80 4 269
1898265N20294 1898 43 NA NA NOT_NAMED 1898-09-23 09:00:00 TS 20.9925 -68.0000 spur-merge 233 222 _____________P -1 20.9925 -68.0000 HU 80 4 270
1898265N20294 1898 43 NA NA NOT_NAMED 1898-09-23 12:00:00 TS 21.0000 -68.2000 spur-merge 222 212 _____________O -1 21.0000 -68.2000 HU 80 4 279
1898265N20294 1898 43 NA NA NOT_NAMED 1898-09-23 15:00:00 TS 21.0500 -68.3999 spur-merge 212 212 _____________P -1 21.0500 -68.3999 HU 80 4 285
1898265N20294 1898 43 NA NA NOT_NAMED 1898-09-23 18:00:00 TS 21.1000 -68.6000 spur-merge 214 207 _____________O -1 21.1000 -68.6000 HU 80 977 4 278
1898265N20294 1898 43 NA NA NOT_NAMED 1898-09-23 21:00:00 TS 21.1000 -68.8001 spur-merge 207 197 _____________P -1 21.1000 -68.8001 HU 80 4 270
1898265N20294 1898 43 NA NA NOT_NAMED 1898-09-24 00:00:00 TS 21.1000 -69.0000 spur-merge 197 187 _____________O -1 21.1000 -69.0000 HU 80 4 278
1898265N20294 1898 43 NA NA NOT_NAMED 1898-09-24 03:00:00 TS 21.1500 -69.2000 spur-merge 187 187 _____________P -1 21.1500 -69.2000 HU 80 4 285
1898265N20294 1898 43 NA NA NOT_NAMED 1898-09-24 06:00:00 TS 21.2000 -69.4000 spur-merge 189 183 _____________O -1 21.2000 -69.4000 HU 80 3 275
1898265N20294 1898 43 NA NA NOT_NAMED 1898-09-24 09:00:00 TS 21.1773 -69.5702 spur-merge 183 177 _____________P -1 21.1773 -69.5702 HU 82 4 270
1898265N20294 1898 43 NA NA NOT_NAMED 1898-09-24 12:00:00 TS 21.2000 -69.8000 spur-merge 177 172 _____________O -1 21.2000 -69.8000 HU 85 6 288
1898265N20294 1898 43 NA NA NOT_NAMED 1898-09-24 15:00:00 TS 21.3626 -70.1699 spur-merge 183 181 _____________P -1 21.3626 -70.1699 HU 85 8 298
1898265N20294 1898 43 NA NA NOT_NAMED 1898-09-24 18:00:00 TS 21.6000 -70.6000 spur-merge 201 201 _____________O -1 21.6000 -70.6000 HU 85 9 302
1898265N20294 1898 43 NA NA NOT_NAMED 1898-09-24 21:00:00 TS 21.8424 -71.0001 spur-merge 217 193 _____________P -1 21.8424 -71.0001 HU 87 9 304
1898265N20294 1898 43 NA NA NOT_NAMED 1898-09-25 00:00:00 TS 22.1000 -71.4000 spur-merge 193 174 _____________O -1 22.1000 -71.4000 HU 90 9 305
1898265N20294 1898 43 NA NA NOT_NAMED 1898-09-25 03:00:00 TS 22.3574 -71.8001 spur-merge 182 172 _____________P -1 22.3574 -71.8001 HU 90 9 304
1898265N20294 1898 43 NA NA NOT_NAMED 1898-09-25 06:00:00 TS 22.6000 -72.2000 spur-merge 176 172 _____________O -1 22.6000 -72.2000 HU 90 9 300
1898265N20294 1898 43 NA NA NOT_NAMED 1898-09-25 09:00:00 TS 22.7924 -72.6003 spur-merge 183 181 _____________P -1 22.7924 -72.6003 HU 92 8 298
1898265N20294 1898 43 NA NA NOT_NAMED 1898-09-25 12:00:00 TS 23.0000 -73.0000 spur-merge 201 201 _____________O -1 23.0000 -73.0000 HU 95 9 304
1898265N20294 1898 43 NA NA NOT_NAMED 1898-09-25 15:00:00 TS 23.2924 -73.4000 spur-merge 235 235 _____________P -1 23.2924 -73.4000 HU 97 10 309
1898265N20294 1898 43 NA NA NOT_NAMED 1898-09-25 18:00:00 NR 23.6000 -73.8000 spur-merge 275 275 _____________O -1 23.6000 -73.8000 MH 100 9 307
1898265N20294 1898 43 NA NA NOT_NAMED 1898-09-25 21:00:00 NR 23.8499 -74.2003 spur-merge 306 306 _____________P -1 23.8499 -74.2003 MH 102 9 304
1898265N20294 1898 43 NA NA NOT_NAMED 1898-09-26 00:00:00 NR 24.1000 -74.6000 spur-merge 317 273 _____________O -1 24.1000 -74.6000 MH 105 9 307
1898265N20294 1898 43 NA NA NOT_NAMED 1898-09-26 03:00:00 NR 24.3999 -75.0000 spur-merge 273 233 _____________P -1 24.3999 -75.0000 MH 107 9 309
1898265N20294 1898 43 NA NA NOT_NAMED 1898-09-26 06:00:00 NR 24.7000 -75.4000 spur-merge 233 196 _____________O -1 24.7000 -75.4000 MH 110 9 307
1898265N20294 1898 43 NA NA NOT_NAMED 1898-09-26 09:00:00 NR 24.9650 -75.8151 spur-merge 199 170 _____________P -1 24.9650 -75.8151 MH 112 9 305
1898265N20294 1898 43 NA NA NOT_NAMED 1898-09-26 12:00:00 NR 25.2000 -76.2000 spur-merge 170 151 _____________O -1 25.2000 -76.2000 MH 115 8 304
1898265N20294 1898 43 NA NA NOT_NAMED 1898-09-26 15:00:00 NR 25.4074 -76.5302 spur-merge 151 132 _____________P -1 25.4074 -76.5302 MH 120 7 306
1898265N20294 1898 43 NA NA NOT_NAMED 1898-09-26 18:00:00 NR 25.6000 -76.8000 spur-merge 132 123 _____________O -1 25.6000 -76.8000 MH 125 948 6 313
1898265N20294 1898 43 NA NA NOT_NAMED 1898-09-26 21:00:00 NR 25.8204 -77.0137 spur-merge 127 127 _____________P -1 25.8204 -77.0137 MH 125 5 318
1898265N20294 1898 43 NA NA NOT_NAMED 1898-09-27 00:00:00 NR 26.0000 -77.2000 spur-merge 128 122 _____________O -1 26.0000 -77.2000 MH 125 4 309
1898265N20294 1898 43 NA NA NOT_NAMED 1898-09-27 03:00:00 NR 26.1000 -77.4000 spur-merge 126 107 _____________O -1 26.1000 -77.4000 MH 125 2 241
1898265N20294 1898 43 NA NA NOT_NAMED 1898-09-27 06:00:00 NR 25.9000 -77.4000 spur-merge 107 98 _____________O -1 25.9000 -77.4000 MH 125 3 164
1898265N20294 1898 43 NA NA NOT_NAMED 1898-09-27 09:00:00 NR 25.8124 -77.3148 spur-merge 105 105 _____________P -1 25.8124 -77.3148 MH 125 3 110
1898265N20294 1898 43 NA NA NOT_NAMED 1898-09-27 12:00:00 NR 25.8000 -77.1000 spur-merge 119 119 _____________O -1 25.8000 -77.1000 MH 125 948 5 92
1898265N20294 1898 43 NA NA NOT_NAMED 1898-09-27 15:00:00 NR 25.7928 -76.7150 spur-merge 152 152 _____________P -1 25.7928 -76.7150 MH 122 7 90
1898265N20294 1898 43 NA NA NOT_NAMED 1898-09-27 18:00:00 NR 25.8000 -76.3000 spur-merge 187 187 _____________O -1 25.8000 -76.3000 MH 120 6 89
1898265N20294 1898 43 NA NA NOT_NAMED 1898-09-27 21:00:00 NR 25.7999 -76.0125 spur-merge 215 215 _____________P -1 25.7999 -76.0125 MH 117 5 90
1898265N20294 1898 43 NA NA NOT_NAMED 1898-09-28 00:00:00 NR 25.8000 -75.8000 spur-merge 233 233 _____________O -1 25.8000 -75.8000 MH 115 3 90
1898265N20294 1898 43 NA NA NOT_NAMED 1898-09-28 03:00:00 NR 25.7999 -75.6500 spur-merge 251 242 _____________P -1 25.7999 -75.6500 MH 112 3 90
1898265N20294 1898 43 NA NA NOT_NAMED 1898-09-28 06:00:00 NR 25.8000 -75.5000 spur-merge 261 261 _____________O -1 25.8000 -75.5000 MH 110 4 90
1898265N20294 1898 43 NA NA NOT_NAMED 1898-09-28 09:00:00 NR 25.8001 -75.2500 spur-merge 288 279 _____________P -1 25.8001 -75.2500 MH 107 5 90
1898265N20294 1898 43 NA NA NOT_NAMED 1898-09-28 12:00:00 NR 25.8000 -75.0000 spur-merge 307 307 _____________O -1 25.8000 -75.0000 MH 105 4 92
1898265N20294 1898 43 NA NA NOT_NAMED 1898-09-28 15:00:00 NR 25.7849 -74.8424 spur-merge 325 325 _____________P -1 25.7849 -74.8424 MH 102 3 90
1898265N20294 1898 43 NA NA NOT_NAMED 1898-09-28 18:00:00 NR 25.8000 -74.7000 spur-merge 334 334 _____________O -1 25.8000 -74.7000 MH 100 3 69
1898265N20294 1898 43 NA NA NOT_NAMED 1898-09-28 21:00:00 NR 25.9076 -74.4852 spur-merge 357 357 _____________P -1 25.9076 -74.4852 MH 97 4 61
1898265N20294 1898 43 NA NA NOT_NAMED 1898-09-29 00:00:00 TS 26.0000 -74.3000 spur-merge 380 380 _____________O -1 26.0000 -74.3000 HU 95 2 75
1898265N20294 1898 43 NA NA NOT_NAMED 1898-09-29 03:00:00 TS 25.9725 -74.2199 spur-merge 389 385 _____________P -1 25.9849 -74.2174 HU 92 1 140
1898265N20294 1898 43 NA NA NOT_NAMED 1898-09-29 06:00:00 TS 25.9000 -74.2000 spur-merge 385 _____________O -1 25.9000 -74.2000 HU 90 2 0

IBTrACS Databaseについて

本データベースは、米国NOAAが公開する1842年以降の世界の熱帯低気圧のベストトラックデータアーカイブInternational Best Track Archive for Climate Stewardship (IBTrACS)を、ウェブで閲覧しやすい形式に変換したものです。

最終更新日:2021-11-26